Time;durP1;ratioP1;P1;durP2;ratioP2;P2;SDS_P1;SDS_P2;PMS_P1;PMS_P2;Temp;Humidity;BMP_temperature;BMP_pressure;BME280_temperature;BME280_humidity;BME280_pressure;Samples;Min_cycle;Max_cycle;Signal;HPM_P1;HPM_P2
2022/01/07 00:00:27;;;;;;;15.88;5.80;;;;;;;2.21;78.86;101244.72;6219462;23;20419;-90
2022/01/07 00:02:55;;;;;;;15.10;5.57;;;;;;;2.32;79.11;101242.81;6219259;23;20377;-90
2022/01/07 00:05:21;;;;;;;14.05;5.70;;;;;;;2.45;79.90;101291.50;6219260;23;20078;-90
2022/01/07 00:07:47;;;;;;;14.02;5.82;;;;;;;2.29;80.94;101297.56;6219313;23;20000;-90
2022/01/07 00:10:15;;;;;;;17.02;6.10;;;;;;;2.32;82.60;101307.09;6193920;23;20389;-89
2022/01/07 00:12:41;;;;;;;16.48;6.43;;;;;;;1.73;83.25;101221.78;6218847;23;20004;-90
2022/01/07 00:15:07;;;;;;;12.50;5.38;;;;;;;2.07;82.06;101278.22;6194021;23;20398;-89
2022/01/07 00:17:35;;;;;;;17.17;6.00;;;;;;;1.71;82.51;101218.38;6219102;23;20087;-90
2022/01/07 00:20:02;;;;;;;16.23;6.00;;;;;;;1.96;83.57;101257.00;6245833;23;20040;-90
2022/01/07 00:22:28;;;;;;;16.65;6.28;;;;;;;1.53;83.71;101203.13;6194699;23;20145;-90
2022/01/07 00:24:53;;;;;;;14.07;5.70;;;;;;;1.88;85.35;101275.63;6219342;23;20035;-90
2022/01/07 00:27:26;;;;;;;11.30;4.50;;;;;;;1.47;84.59;101198.38;6193845;23;20073;-90
2022/01/07 00:29:52;;;;;;;12.68;5.30;;;;;;;1.36;85.93;101199.41;6218341;23;20014;-90
2022/01/07 00:32:17;;;;;;;15.88;5.53;;;;;;;1.70;86.13;101248.84;6194141;23;20330;-89
2022/01/07 00:34:42;;;;;;;11.95;5.32;;;;;;;1.33;86.24;101193.50;6219032;23;20008;-90
2022/01/07 00:37:11;;;;;;;16.60;5.72;;;;;;;1.79;87.02;101274.69;6193294;23;20036;-90
2022/01/07 00:39:37;;;;;;;17.35;6.72;;;;;;;1.38;88.40;101210.78;6218742;23;20099;-90
2022/01/07 00:42:03;;;;;;;15.82;6.40;;;;;;;1.21;89.21;101184.81;6193734;23;20047;-89
2022/01/07 00:44:29;;;;;;;17.52;6.70;;;;;;;1.40;90.11;101214.16;6193902;23;20004;-90
2022/01/07 00:46:59;;;;;;;13.07;5.57;;;;;;;1.37;89.69;101214.47;6218298;23;20006;-90
2022/01/07 00:49:25;;;;;;;19.95;5.93;;;;;;;1.11;89.27;101160.81;6218924;23;20030;-89
2022/01/07 00:51:51;;;;;;;16.98;6.65;;;;;;;1.08;89.53;101147.72;6193599;23;20427;-90
2022/01/07 00:54:17;;;;;;;15.00;5.40;;;;;;;1.16;87.88;101138.97;6219016;23;20028;-89
2022/01/07 00:56:43;;;;;;;14.50;5.72;;;;;;;1.34;90.06;101201.34;6218567;23;20015;-90
2022/01/07 00:59:14;;;;;;;14.82;6.57;;;;;;;1.50;90.46;101218.63;6218821;23;20008;-90
2022/01/07 01:01:44;;;;;;;16.30;5.93;;;;;;;1.45;89.45;101178.09;6194436;23;20012;-90
2022/01/07 01:04:09;;;;;;;18.63;6.15;;;;;;;1.10;89.22;101135.06;6245157;23;20431;-89
2022/01/07 01:06:40;;;;;;;14.88;5.55;;;;;;;1.12;88.95;101137.59;6218513;23;20003;-90
2022/01/07 01:09:09;;;;;;;14.65;5.68;;;;;;;0.97;89.83;101107.81;6219288;23;20347;-90
2022/01/07 01:11:35;;;;;;;13.20;5.65;;;;;;;1.01;90.26;101109.22;6218889;23;20027;-89
2022/01/07 01:14:00;;;;;;;13.63;5.32;;;;;;;1.08;88.09;101110.31;6219595;23;20423;-90
2022/01/07 01:16:26;;;;;;;10.65;5.00;;;;;;;1.47;89.23;101179.66;6218786;23;20008;-89
2022/01/07 01:18:52;;;;;;;15.60;5.40;;;;;;;1.37;88.83;101136.94;6193368;23;20019;-89
2022/01/07 01:21:17;;;;;;;9.90;4.35;;;;;;;1.74;87.54;101186.84;6218019;23;20079;-90
2022/01/07 01:23:45;;;;;;;15.20;5.20;;;;;;;1.55;87.95;101158.38;6193281;23;20423;-89
2022/01/07 01:26:14;;;;;;;14.52;4.50;;;;;;;1.34;86.76;101089.06;6218697;23;20069;-90
2022/01/07 01:28:40;;;;;;;12.10;4.35;;;;;;;1.38;87.33;101101.16;6218835;23;20004;-90
2022/01/07 01:31:24;;;;;;;12.70;4.65;;;;;;;1.94;86.81;101165.31;6245619;23;20035;-89
2022/01/07 01:33:52;;;;;;;10.95;4.60;;;;;;;1.99;85.14;101159.50;6245978;23;20419;-89
2022/01/07 01:36:17;;;;;;;11.32;4.50;;;;;;;1.97;85.53;101162.34;6219239;23;20004;-90
2022/01/07 01:38:43;;;;;;;14.55;4.93;;;;;;;2.13;84.48;101164.34;6218592;23;20011;-89
2022/01/07 01:41:09;;;;;;;14.00;5.35;;;;;;;1.82;85.27;101105.81;6221993;23;20020;-90
2022/01/07 01:43:35;;;;;;;9.18;3.83;;;;;;;1.96;84.72;101147.25;6227107;23;20000;-90
2022/01/07 01:46:03;;;;;;;13.75;4.45;;;;;;;1.95;84.95;101134.03;6226146;23;20001;-90
2022/01/07 01:48:29;;;;;;;12.88;4.18;;;;;;;1.57;84.58;101061.94;6194689;23;20027;-90
2022/01/07 01:50:59;;;;;;;11.80;4.45;;;;;;;1.78;84.77;101088.38;6193215;23;20013;-90
2022/01/07 01:53:25;;;;;;;9.75;4.07;;;;;;;1.93;82.88;101084.19;6219017;23;20004;-90
2022/01/07 01:55:52;;;;;;;11.95;4.07;;;;;;;2.12;83.02;101094.91;6218554;23;20068;-90
2022/01/07 01:58:17;;;;;;;13.95;4.55;;;;;;;2.19;82.11;101101.31;6218135;23;20026;-90
2022/01/07 02:00:43;;;;;;;12.48;4.00;;;;;;;2.18;82.49;101102.31;6218908;23;20406;-90
2022/01/07 02:03:08;;;;;;;11.77;3.72;;;;;;;2.46;81.27;101130.66;6192638;23;20012;-90
2022/01/07 02:05:34;;;;;;;11.55;3.95;;;;;;;2.04;81.42;101050.16;6193295;23;20012;-89
2022/01/07 02:08:00;;;;;;;11.27;3.53;;;;;;;2.19;80.93;101062.00;6193430;23;20087;-90
2022/01/07 02:10:26;;;;;;;11.20;3.63;;;;;;;2.05;81.96;101042.00;6218283;23;20007;-90
2022/01/07 02:12:52;;;;;;;10.68;3.70;;;;;;;2.30;82.84;101103.75;6218110;23;20103;-90
2022/01/07 02:15:20;;;;;;;12.50;3.60;;;;;;;2.42;82.40;101117.72;6168807;23;20035;-90
2022/01/07 02:17:49;;;;;;;7.25;3.15;;;;;;;2.50;82.43;101115.13;6195805;23;20447;-90
2022/01/07 02:20:18;;;;;;;9.40;3.40;;;;;;;2.25;82.74;101060.53;6220333;23;20096;-90
2022/01/07 02:22:47;;;;;;;8.93;3.22;;;;;;;2.17;84.09;101064.00;6220255;23;20427;-89
2022/01/07 02:25:14;;;;;;;10.95;3.33;;;;;;;1.87;85.10;101033.94;6220142;23;20008;-90
2022/01/07 02:27:42;;;;;;;8.05;3.10;;;;;;;2.25;85.93;101106.88;6247090;23;20012;-90
2022/01/07 02:30:10;;;;;;;6.40;3.20;;;;;;;1.83;87.26;101047.78;6220111;23;20008;-90
2022/01/07 02:32:36;;;;;;;10.15;3.50;;;;;;;2.07;88.83;101111.44;6194920;23;20004;-89
2022/01/07 02:35:04;;;;;;;9.95;3.65;;;;;;;1.56;90.13;101028.97;6220196;23;20012;-89
2022/01/07 02:37:32;;;;;;;9.68;3.90;;;;;;;1.50;91.98;101039.44;6246363;23;20442;-89
2022/01/07 02:39:57;;;;;;;11.30;4.03;;;;;;;1.19;91.84;101013.88;6195117;23;20028;-89
2022/01/07 02:42:26;;;;;;;11.93;3.80;;;;;;;1.27;93.77;101034.53;6195235;23;20015;-90
2022/01/07 02:44:52;;;;;;;12.57;4.32;;;;;;;1.10;96.05;101033.50;6195449;23;20004;-91
2022/01/07 02:47:18;;;;;;;12.05;3.75;;;;;;;1.02;95.88;101023.56;6220601;23;20007;-90
2022/01/07 02:49:44;;;;;;;10.20;3.88;;;;;;;1.21;96.32;101064.53;6194623;23;20036;-90
2022/01/07 02:52:09;;;;;;;14.27;4.47;;;;;;;0.74;97.16;100987.13;6194944;23;20022;-90
2022/01/07 02:54:35;;;;;;;13.27;4.75;;;;;;;0.65;98.15;100976.34;6220072;23;20011;-90
2022/01/07 02:57:00;;;;;;;12.38;4.60;;;;;;;1.23;99.58;101084.78;6194294;23;20012;-90
2022/01/07 02:59:26;;;;;;;12.60;4.07;;;;;;;0.92;99.58;101029.94;6194602;23;20008;-90
2022/01/07 03:01:54;;;;;;;9.95;4.55;;;;;;;0.39;100.00;100946.81;6194505;23;20107;-91
2022/01/07 03:04:23;;;;;;;14.50;4.93;;;;;;;0.86;100.00;101023.38;6219625;23;20012;-91
2022/01/07 03:06:51;;;;;;;13.30;5.00;;;;;;;0.48;100.00;100967.28;6219357;23;20023;-91
2022/01/07 03:09:17;;;;;;;11.18;4.90;;;;;;;0.16;100.00;100917.81;6220144;23;20004;-91
2022/01/07 03:11:45;;;;;;;14.02;5.18;;;;;;;0.62;100.00;101015.84;6220689;23;20454;-91
2022/01/07 03:14:10;;;;;;;19.38;5.35;;;;;;;0.02;100.00;100910.28;6194948;23;20343;-91
2022/01/07 03:16:38;;;;;;;13.93;4.75;;;;;;;0.62;100.00;101008.69;6220451;23;20004;-92
2022/01/07 03:19:05;;;;;;;14.77;5.97;;;;;;;-0.05;100.00;100912.66;6219829;23;20004;-91
2022/01/07 03:21:43;;;;;;;17.00;5.60;;;;;;;0.64;100.00;101012.06;6220241;23;20442;-91
2022/01/07 03:24:09;;;;;;;15.07;5.30;;;;;;;0.51;100.00;100972.31;6219468;23;20008;-91
2022/01/07 03:26:35;;;;;;;13.23;5.13;;;;;;;0.65;100.00;101011.06;6220460;23;20007;-91
2022/01/07 03:29:03;;;;;;;17.42;5.90;;;;;;;0.09;100.00;100919.38;6221033;23;20035;-91
2022/01/07 03:31:33;;;;;;;11.93;5.85;;;;;;;0.59;100.00;100994.78;6219785;23;20011;-91
2022/01/07 03:34:03;;;;;;;12.10;5.55;;;;;;;0.90;100.00;101039.94;6220824;23;20007;-91
2022/01/07 03:36:28;;;;;;;14.10;5.78;;;;;;;0.19;100.00;100921.16;6195038;23;20024;-91
2022/01/07 03:38:54;;;;;;;20.33;6.82;;;;;;;0.83;100.00;101021.81;6195787;23;20011;-91
2022/01/07 03:41:20;;;;;;;17.00;5.97;;;;;;;0.68;100.00;101004.59;6194735;23;20044;-91
2022/01/07 03:43:48;;;;;;;16.83;5.90;;;;;;;0.26;100.00;100924.94;6219982;23;20004;-92
2022/01/07 03:46:16;;;;;;;18.90;6.18;;;;;;;-0.02;100.00;100874.19;6195485;23;20000;-91
2022/01/07 03:48:44;;;;;;;15.80;6.32;;;;;;;0.67;100.00;100978.88;6195465;23;20321;-91
2022/01/07 03:51:10;;;;;;;20.60;6.88;;;;;;;0.72;100.00;100981.94;6220274;23;20443;-92
2022/01/07 03:53:37;;;;;;;13.73;5.50;;;;;;;0.44;100.00;100923.16;6220132;23;20000;-92
2022/01/07 03:56:03;;;;;;;17.27;6.10;;;;;;;1.07;100.00;101025.78;6246251;23;20427;-91
2022/01/07 03:58:29;;;;;;;14.65;6.00;;;;;;;0.49;100.00;100931.59;6219670;23;20011;-91
2022/01/07 04:01:02;;;;;;;15.60;6.50;;;;;;;0.55;100.00;100927.50;6195137;23;20030;-92
2022/01/07 04:03:30;;;;;;;16.65;7.13;;;;;;;0.26;100.00;100900.91;6171886;23;20018;-91
2022/01/07 04:05:56;;;;;;;16.15;6.82;;;;;;;0.67;100.00;100936.16;6195145;23;20004;-91
2022/01/07 04:08:24;;;;;;;15.15;6.70;;;;;;;1.08;100.00;101013.25;6195094;23;20480;-91
2022/01/07 04:10:49;;;;;;;13.40;6.80;;;;;;;0.43;100.00;100897.47;6195041;23;20035;-91
2022/01/07 04:13:15;;;;;;;15.65;6.65;;;;;;;1.02;100.00;100988.81;6219783;23;20007;-91
2022/01/07 04:15:40;;;;;;;17.70;7.22;;;;;;;0.51;100.00;100902.06;6194750;23;20012;-91
2022/01/07 04:18:06;;;;;;;14.38;6.30;;;;;;;0.52;100.00;100904.59;6220489;23;20062;-91
2022/01/07 04:20:36;;;;;;;14.00;7.20;;;;;;;0.50;100.00;100887.03;6219388;23;20087;-91
2022/01/07 04:23:06;;;;;;;13.85;6.60;;;;;;;0.40;100.00;100864.88;6219524;23;20004;-91
2022/01/07 04:25:35;;;;;;;13.57;6.97;;;;;;;0.57;100.00;100898.81;6219691;23;20032;-91
2022/01/07 04:28:04;;;;;;;13.02;7.40;;;;;;;0.45;100.00;100874.13;6195381;23;20019;-91
2022/01/07 04:30:33;;;;;;;15.30;6.10;;;;;;;1.05;100.00;100960.97;6219200;23;20407;-91
2022/01/07 04:32:59;;;;;;;14.32;7.68;;;;;;;1.25;100.00;100993.75;6218946;23;20011;-91
2022/01/07 04:35:25;;;;;;;11.85;7.55;;;;;;;0.70;100.00;100890.44;6194817;23;20027;-90
2022/01/07 04:37:51;;;;;;;16.00;7.53;;;;;;;1.30;100.00;100974.56;6219294;23;20007;-90
2022/01/07 04:40:18;;;;;;;14.50;7.00;;;;;;;0.64;100.00;100873.19;6251172;23;20016;-90
2022/01/07 04:42:44;;;;;;;16.42;7.13;;;;;;;0.81;100.00;100905.41;6221816;23;20065;-90
2022/01/07 04:45:13;;;;;;;21.70;7.75;;;;;;;0.64;100.00;100875.84;6222194;23;20000;-90
2022/01/07 04:47:43;;;;;;;16.73;8.55;;;;;;;1.16;100.00;100947.38;6220922;23;20321;-91
2022/01/07 04:50:17;;;;;;;14.57;7.40;;;;;;;0.77;100.00;100874.66;6218459;23;20446;-90
2022/01/07 04:52:46;;;;;;;16.70;8.82;;;;;;;1.28;100.00;100961.34;6218576;23;20087;-90
2022/01/07 04:55:15;;;;;;;15.18;8.30;;;;;;;1.56;100.00;100988.84;6219004;23;20012;-91
2022/01/07 04:57:45;;;;;;;14.70;8.63;;;;;;;0.81;100.00;100866.22;6218915;23;20030;-91
2022/01/07 05:00:15;;;;;;;15.65;8.57;;;;;;;0.83;100.00;100866.88;6219689;23;20479;-91
2022/01/07 05:02:44;;;;;;;15.43;9.45;;;;;;;1.07;100.00;100900.19;6219840;23;20012;-91
2022/01/07 05:05:13;;;;;;;17.38;10.25;;;;;;;1.31;100.00;100931.63;6219188;23;20091;-91
2022/01/07 05:07:39;;;;;;;19.05;9.15;;;;;;;0.77;100.00;100831.91;6243810;23;20050;-91
2022/01/07 05:10:10;;;;;;;16.30;9.35;;;;;;;1.42;100.00;100937.75;6219234;23;20042;-91
2022/01/07 05:12:39;;;;;;;16.83;9.60;;;;;;;1.51;100.00;100939.53;6218502;23;20040;-91
2022/01/07 05:15:05;;;;;;;15.93;9.48;;;;;;;0.97;100.00;100854.81;6219449;23;20011;-90
2022/01/07 05:17:32;;;;;;;19.17;9.93;;;;;;;0.94;100.00;100848.94;6219418;23;20008;-91
2022/01/07 05:20:01;;;;;;;16.95;9.60;;;;;;;0.92;100.00;100830.41;6219171;23;20024;-91
2022/01/07 05:22:28;;;;;;;19.40;10.75;;;;;;;1.82;100.00;100965.88;6194425;23;20008;-90
2022/01/07 05:24:53;;;;;;;16.20;9.27;;;;;;;1.77;100.00;100962.81;6243599;23;20046;-90
2022/01/07 05:27:18;;;;;;;16.67;9.55;;;;;;;1.58;100.00;100936.06;6168554;23;20031;-90
2022/01/07 05:29:44;;;;;;;17.10;9.70;;;;;;;1.83;100.00;100959.50;6193495;23;20042;-90
2022/01/07 05:32:10;;;;;;;19.65;10.75;;;;;;;1.88;100.00;100968.75;6193989;23;20012;-89
2022/01/07 05:34:36;;;;;;;18.00;11.20;;;;;;;1.89;100.00;100970.44;6193228;23;20008;-90
2022/01/07 05:37:03;;;;;;;17.30;10.43;;;;;;;1.11;100.00;100839.25;6193122;23;20015;-89
2022/01/07 05:39:29;;;;;;;19.35;11.00;;;;;;;1.37;100.00;100868.69;6193504;23;20343;-90
2022/01/07 05:42:00;;;;;;;17.73;10.07;;;;;;;1.17;100.00;100830.63;6245315;23;20016;-90
2022/01/07 05:44:26;;;;;;;20.40;10.05;;;;;;;1.68;100.00;100911.06;6193980;23;20012;-90
2022/01/07 05:46:51;;;;;;;21.55;11.70;;;;;;;1.74;100.00;100926.50;6218750;23;20007;-91
2022/01/07 05:49:17;;;;;;;19.00;10.88;;;;;;;1.30;100.00;100860.47;6219824;23;20000;-91
2022/01/07 05:51:45;;;;;;;19.88;11.57;;;;;;;1.72;100.00;100912.44;6246422;23;20030;-90
2022/01/07 05:54:14;;;;;;;18.65;10.50;;;;;;;1.47;100.00;100873.97;6220390;23;20014;-90
2022/01/07 05:56:40;;;;;;;21.95;12.90;;;;;;;1.25;100.00;100827.19;6247149;23;20014;-90
2022/01/07 05:59:06;;;;;;;17.10;10.27;;;;;;;1.65;100.00;100889.97;6195536;23;20012;-90
2022/01/07 06:01:31;;;;;;;20.00;10.50;;;;;;;1.35;100.00;100826.09;6246268;23;20008;-89
2022/01/07 06:04:02;;;;;;;18.23;11.57;;;;;;;1.82;100.00;100890.94;6220680;23;20411;-90
2022/01/07 06:06:28;;;;;;;20.33;11.88;;;;;;;2.08;100.00;100945.31;6170489;23;20092;-91
2022/01/07 06:08:54;;;;;;;21.92;11.80;;;;;;;1.40;100.00;100825.59;6195932;23;20028;-91
2022/01/07 06:11:19;;;;;;;22.80;12.82;;;;;;;1.36;100.00;100826.94;6220466;23;20065;-92
2022/01/07 06:13:45;;;;;;;23.08;13.00;;;;;;;1.58;100.00;100861.19;6221105;23;20019;-92
2022/01/07 06:16:23;;;;;;;20.50;12.10;;;;;;;2.16;100.00;100952.53;6196171;23;20008;-95
2022/01/07 06:22:12;;;;;;;26.35;11.15;;;;;;;1.90;100.00;100923.94;6248479;23;20066;-91
2022/01/07 06:24:52;;;;;;;21.85;12.32;;;;;;;1.85;100.00;100910.19;6195994;23;20378;-92
2022/01/07 06:27:17;;;;;;;18.83;11.52;;;;;;;1.51;100.00;100840.59;6220431;23;20000;-93
2022/01/07 06:29:54;;;;;;;22.60;12.25;;;;;;;1.97;100.00;100915.28;6221474;23;20011;-93
2022/01/07 06:32:26;;;;;;;20.20;12.13;;;;;;;1.52;100.00;100858.28;6221095;23;20137;-93
2022/01/07 06:34:52;;;;;;;22.30;12.70;;;;;;;1.49;100.00;100840.75;6196908;23;20008;-93
2022/01/07 06:37:19;;;;;;;21.48;12.77;;;;;;;1.55;100.00;100833.91;6221061;23;20000;-93
2022/01/07 06:39:56;;;;;;;23.90;12.15;;;;;;;1.61;100.00;100845.81;6221127;23;20008;-93
2022/01/07 06:42:31;;;;;;;19.10;12.13;;;;;;;1.64;100.00;100854.38;6218117;23;20016;-93
2022/01/07 06:44:57;;;;;;;20.35;12.57;;;;;;;1.75;100.00;100869.31;6221194;23;20008;-92
2022/01/07 06:47:42;;;;;;;22.63;12.80;;;;;;;2.06;100.00;100928.56;6221389;23;19996;-92
2022/01/07 06:50:08;;;;;;;21.70;12.32;;;;;;;2.12;100.00;100910.19;6220826;23;20008;-92
2022/01/07 06:52:34;;;;;;;24.25;12.55;;;;;;;2.11;100.00;100930.75;6195776;23;20011;-93
2022/01/07 06:55:02;;;;;;;22.52;12.10;;;;;;;2.15;100.00;100909.88;6221282;23;20000;-92
2022/01/07 06:57:31;;;;;;;21.20;12.52;;;;;;;1.65;100.00;100839.16;6196732;23;20389;-92
2022/01/07 06:59:57;;;;;;;25.90;13.27;;;;;;;1.68;100.00;100825.47;6221053;23;20071;-92
2022/01/07 07:02:25;;;;;;;22.23;13.40;;;;;;;2.13;100.00;100896.66;6220710;23;20486;-93
2022/01/07 07:04:53;;;;;;;24.95;12.52;;;;;;;1.75;100.00;100821.16;6195838;23;20008;-92
2022/01/07 07:07:26;;;;;;;21.48;13.32;;;;;;;2.21;100.00;100907.38;6246431;23;20000;-92
2022/01/07 07:09:57;;;;;;;22.75;13.52;;;;;;;1.85;100.00;100837.13;6195696;23;20016;-93
2022/01/07 07:12:22;;;;;;;23.27;13.63;;;;;;;2.33;100.00;100915.97;6220817;23;20015;-93
2022/01/07 07:14:48;;;;;;;23.35;13.02;;;;;;;2.30;100.00;100921.66;6220762;23;20008;-93
2022/01/07 07:17:16;;;;;;;21.63;13.20;;;;;;;2.31;100.00;100912.63;6220512;23;20008;-93
2022/01/07 07:19:47;;;;;;;22.00;12.45;;;;;;;2.43;100.00;100926.59;6195799;23;20039;-92
2022/01/07 07:22:12;;;;;;;22.08;12.63;;;;;;;1.96;100.00;100852.06;6220734;23;20020;-93
2022/01/07 07:24:47;;;;;;;22.27;13.23;;;;;;;1.95;100.00;100839.66;6221077;23;20014;-93
2022/01/07 07:27:22;;;;;;;23.85;13.82;;;;;;;2.37;100.00;100917.34;6221220;23;20316;-93
2022/01/07 07:29:59;;;;;;;24.70;12.90;;;;;;;1.99;100.00;100843.72;6220860;23;20000;-93
2022/01/07 07:32:30;;;;;;;23.13;13.15;;;;;;;1.98;100.00;100845.56;6195538;23;20012;-90
2022/01/07 07:35:00;;;;;;;20.60;10.40;;;;;;;2.79;100.00;100954.03;6173673;23;20012;-91
2022/01/07 07:37:29;;;;;;;21.42;12.20;;;;;;;2.08;100.00;100845.41;6199921;23;20004;-90
2022/01/07 07:39:55;;;;;;;28.50;12.93;;;;;;;2.80;100.00;100952.19;6220874;23;20047;-90
2022/01/07 07:42:21;;;;;;;23.08;13.32;;;;;;;2.09;100.00;100853.28;6194552;23;20020;-90
2022/01/07 07:44:47;;;;;;;21.20;13.05;;;;;;;2.14;100.00;100855.50;6195450;23;20081;-89
2022/01/07 07:47:13;;;;;;;22.58;12.68;;;;;;;2.08;100.00;100832.03;6218425;23;20008;-90
2022/01/07 07:49:42;;;;;;;22.55;12.07;;;;;;;2.15;100.00;100835.75;6218962;23;20028;-91
2022/01/07 07:52:10;;;;;;;22.27;13.18;;;;;;;2.29;100.00;100858.41;6219266;23;20027;-91
2022/01/07 07:54:36;;;;;;;21.35;12.55;;;;;;;2.16;100.00;100839.28;6219527;23;20004;-91
2022/01/07 07:57:04;;;;;;;24.80;13.82;;;;;;;2.58;100.00;100900.03;6194915;23;20355;-91
2022/01/07 07:59:30;;;;;;;20.48;12.60;;;;;;;2.48;100.00;100888.59;6219992;23;20054;-91
2022/01/07 08:01:55;;;;;;;22.40;12.52;;;;;;;2.15;100.00;100838.44;6195001;23;20012;-91
2022/01/07 08:04:23;;;;;;;21.33;13.27;;;;;;;2.42;100.00;100887.41;6219974;23;20004;-90
2022/01/07 08:06:50;;;;;;;20.58;12.60;;;;;;;2.84;100.00;100924.06;6194929;23;20004;-91
2022/01/07 08:09:19;;;;;;;23.13;12.07;;;;;;;2.28;100.00;100835.31;6193008;23;20015;-92
2022/01/07 08:11:51;;;;;;;25.70;13.13;;;;;;;2.13;100.00;100812.81;6219098;23;20339;-91
2022/01/07 08:17:03;;;;;;;21.05;12.20;;;;;;;2.80;100.00;100903.97;6246107;23;20381;-91
2022/01/07 08:19:31;;;;;;;21.42;12.38;;;;;;;2.22;100.00;100806.50;6191202;23;20012;-91
2022/01/07 08:21:57;;;;;;;20.83;11.02;;;;;;;2.47;100.00;100831.53;6220133;23;20440;-91
2022/01/07 08:24:23;;;;;;;27.00;12.73;;;;;;;2.34;100.00;100821.28;6220009;23;20008;-91
2022/01/07 08:26:49;;;;;;;20.92;11.93;;;;;;;2.32;100.00;100817.94;6194947;23;20011;-92
2022/01/07 08:29:32;;;;;;;24.58;12.25;;;;;;;2.85;100.00;100882.03;6224415;23;20011;-91
2022/01/07 08:34:54;;;;;;;20.65;12.18;;;;;;;2.32;100.00;100807.22;6248483;23;20093;-91
2022/01/07 08:37:27;;;;;;;22.55;12.02;;;;;;;2.67;100.00;100864.22;6219426;23;20012;-91
2022/01/07 08:39:54;;;;;;;19.08;10.80;;;;;;;2.42;100.00;100825.81;6195453;23;20515;-91
2022/01/07 08:42:24;;;;;;;22.88;11.52;;;;;;;2.97;100.00;100904.84;6219230;23;20399;-91
2022/01/07 08:44:59;;;;;;;21.45;11.82;;;;;;;2.94;100.00;100911.38;5111166;27;20392;-90
2022/01/07 08:47:28;;;;;;;22.33;12.48;;;;;;;2.56;100.00;100841.25;5110628;28;20028;-90
2022/01/07 08:49:53;;;;;;;20.83;11.48;;;;;;;2.66;100.00;100849.16;5094308;28;20020;-90
2022/01/07 08:52:20;;;;;;;20.80;12.20;;;;;;;2.60;100.00;100837.25;5076943;28;20163;-90
2022/01/07 08:54:50;;;;;;;20.83;10.90;;;;;;;2.74;100.00;100856.38;5092440;28;20399;-90
2022/01/07 08:57:16;;;;;;;21.50;10.70;;;;;;;2.55;100.00;100836.06;5093308;28;20028;-90
2022/01/07 08:59:52;;;;;;;18.13;8.80;;;;;;;3.27;100.00;100953.50;5092497;28;20024;-90
2022/01/07 09:02:27;;;;;;;22.15;12.05;;;;;;;3.09;100.00;100918.78;5057153;28;20032;-90
2022/01/07 09:04:52;;;;;;;20.33;11.68;;;;;;;2.73;100.00;100860.06;5072176;28;20032;-90
2022/01/07 09:07:21;;;;;;;20.15;10.98;;;;;;;2.71;100.00;100851.34;5055933;28;20036;-91
2022/01/07 09:09:46;;;;;;;22.23;11.20;;;;;;;3.10;100.00;100920.44;5055926;28;20032;-90
2022/01/07 09:12:15;;;;;;;18.50;10.50;;;;;;;2.67;100.00;100840.09;5072259;28;20025;-91
2022/01/07 09:14:40;;;;;;;18.75;9.98;;;;;;;2.82;100.00;100859.09;5072440;28;20025;-90
2022/01/07 09:17:06;;;;;;;19.83;11.10;;;;;;;2.75;100.00;100848.19;5072434;28;20028;-90
2022/01/07 09:19:35;;;;;;;20.13;10.57;;;;;;;2.77;100.00;100854.19;5089013;28;20043;-90
2022/01/07 09:22:01;;;;;;;18.65;10.52;;;;;;;3.40;100.00;100951.16;5055831;28;20097;-89
2022/01/07 09:24:35;;;;;;;19.20;10.13;;;;;;;3.35;100.00;100934.72;5039055;28;20029;-91
2022/01/07 09:27:03;;;;;;;20.17;9.98;;;;;;;3.36;100.00;100936.41;5073500;28;20464;-90
2022/01/07 09:29:30;;;;;;;19.58;10.52;;;;;;;2.93;100.00;100866.81;5054620;28;20032;-90
2022/01/07 09:31:56;;;;;;;17.08;10.10;;;;;;;2.89;100.00;100848.53;5038352;28;20043;-90
2022/01/07 09:34:21;;;;;;;20.30;10.18;;;;;;;3.43;100.00;100910.59;5071699;28;20520;-92
2022/01/07 09:36:51;;;;;;;17.73;9.55;;;;;;;2.98;100.00;100842.19;5071679;28;20032;-91
2022/01/07 09:39:21;;;;;;;12.75;8.80;;;;;;;3.11;100.00;100847.88;5071595;28;20110;-91
2022/01/07 09:41:49;;;;;;;17.23;8.70;;;;;;;3.41;100.00;100883.13;5055173;28;20039;-91
2022/01/07 09:44:17;;;;;;;16.38;9.38;;;;;;;3.13;100.00;100848.56;5070903;28;20048;-91
2022/01/07 09:46:49;;;;;;;18.25;9.00;;;;;;;3.55;100.00;100910.28;5055053;28;20157;-91
2022/01/07 09:49:14;;;;;;;16.70;8.65;;;;;;;3.62;100.00;100912.13;5070776;28;20028;-90
2022/01/07 09:51:41;;;;;;;15.13;7.47;;;;;;;3.73;100.00;100918.97;5070346;28;20082;-86
2022/01/07 09:54:08;;;;;;;14.80;7.80;;;;;;;4.04;100.00;100934.38;5069709;28;20039;-86
2022/01/07 09:56:35;;;;;;;15.20;8.70;;;;;;;3.85;100.00;100911.41;5064804;28;20116;-87
2022/01/07 09:59:07;;;;;;;12.13;7.95;;;;;;;4.07;100.00;100931.34;5053257;28;20075;-87
2022/01/07 10:02:23;;;;;;;13.35;7.32;;;;;;;4.08;100.00;100933.03;5069493;28;20040;-90
2022/01/07 10:04:53;;;;;;;14.90;7.60;;;;;;;3.49;100.00;100840.19;5050355;28;20390;-91
2022/01/07 10:07:26;;;;;;;13.50;6.63;;;;;;;3.57;100.00;100850.06;5037614;28;20120;-90
2022/01/07 10:10:18;;;;;;;14.50;6.78;;;;;;;3.65;100.00;100841.19;5037826;28;20033;-91
2022/01/07 10:13:00;;;;;;;17.75;7.75;;;;;;;4.22;100.00;100926.97;5056389;28;20028;-92
2022/01/07 10:15:34;;;;;;;14.23;7.37;;;;;;;3.89;100.00;100874.34;5057464;28;20386;-91
2022/01/07 10:18:07;;;;;;;11.63;6.55;;;;;;;3.73;100.00;100841.16;5057743;28;20287;-90
2022/01/07 10:20:37;;;;;;;16.55;6.95;;;;;;;4.14;99.98;100905.50;5057030;28;20028;-90
2022/01/07 10:23:10;;;;;;;11.57;6.38;;;;;;;3.85;99.70;100863.97;5057764;28;20465;-90
2022/01/07 10:25:43;;;;;;;13.57;6.00;;;;;;;3.79;99.86;100847.69;5056197;28;20409;-91
2022/01/07 10:28:18;;;;;;;15.13;6.88;;;;;;;3.80;99.60;100841.31;5057773;28;20029;-91
2022/01/07 10:30:50;;;;;;;11.88;6.35;;;;;;;3.75;100.00;100806.94;5057687;28;20020;-91
2022/01/07 10:33:31;;;;;;;15.98;6.80;;;;;;;4.13;99.08;100879.63;5057348;28;20033;-90
2022/01/07 10:36:13;;;;;;;14.05;6.10;;;;;;;4.13;98.67;100870.75;5056968;28;20029;-91
2022/01/07 10:38:49;;;;;;;11.85;6.32;;;;;;;4.24;99.26;100891.88;5056206;28;20409;-91
2022/01/07 10:41:15;;;;;;;12.60;5.90;;;;;;;3.86;97.23;100817.28;5057070;28;20102;-91
2022/01/07 10:43:42;;;;;;;13.93;6.00;;;;;;;4.20;98.28;100877.94;5053172;28;20053;-90
2022/01/07 10:46:11;;;;;;;12.35;5.82;;;;;;;4.45;98.86;100901.22;5054070;28;20036;-91
2022/01/07 10:48:50;;;;;;;11.63;5.78;;;;;;;4.51;98.93;100903.19;5055602;28;20460;-90
2022/01/07 10:51:22;;;;;;;12.52;5.43;;;;;;;4.21;98.16;100842.03;5053538;28;20068;-91
2022/01/07 10:54:01;;;;;;;12.98;5.80;;;;;;;4.20;98.51;100812.66;5053086;28;20496;-91
2022/01/07 10:56:43;;;;;;;11.30;5.25;;;;;;;4.54;97.17;100857.16;5053209;28;20079;-91
2022/01/07 10:59:36;;;;;;;;;;;;;;;;;;;;;
2022/01/07 11:02:12;;;;;;;14.00;4.70;;;;;;;4.33;95.23;100778.00;5055444;28;20028;-91
2022/01/07 11:04:47;;;;;;;14.27;5.38;;;;;;;5.12;95.01;100883.72;5054004;28;20041;-90
2022/01/07 11:07:14;;;;;;;10.13;4.78;;;;;;;5.25;94.79;100883.97;5035590;28;20037;-91
2022/01/07 11:09:40;;;;;;;10.60;5.03;;;;;;;5.16;93.99;100847.38;5053351;28;20083;-90
2022/01/07 11:12:06;;;;;;;11.07;4.80;;;;;;;5.44;93.77;100883.47;5035884;28;20397;-88
2022/01/07 11:14:35;;;;;;;9.85;5.20;;;;;;;5.09;94.22;100829.28;5053423;28;20393;-91
2022/01/07 11:17:07;;;;;;;10.00;4.82;;;;;;;4.92;92.93;100808.91;5052164;28;20087;-90
2022/01/07 11:19:37;;;;;;;10.40;5.25;;;;;;;5.26;92.77;100902.59;5052073;28;20498;-91
2022/01/07 11:22:06;;;;;;;15.20;5.03;;;;;;;5.07;94.83;100916.53;5052657;28;20029;-90
2022/01/07 11:24:42;;;;;;;13.73;5.90;;;;;;;3.99;98.46;100762.25;5052803;28;20044;-90
2022/01/07 11:27:26;;;;;;;15.93;6.30;;;;;;;3.77;100.00;100778.06;5052677;28;20432;-92
2022/01/07 11:30:03;;;;;;;14.85;6.30;;;;;;;4.54;100.00;100900.16;5052770;28;20398;-91
2022/01/07 11:32:39;;;;;;;11.80;6.10;;;;;;;4.35;100.00;100861.13;5053111;28;20037;-90
2022/01/07 11:35:23;;;;;;;12.95;5.63;;;;;;;4.57;100.00;100892.56;5053521;28;20028;-91